Time;durP1;ratioP1;P1;durP2;ratioP2;P2;SDS_P1;SDS_P2;PMS_P1;PMS_P2;Temp;Humidity;BMP_temperature;BMP_pressure;BME280_temperature;BME280_humidity;BME280_pressure;Samples;Min_cycle;Max_cycle;Signal;HPM_P1;HPM_P2
2021/12/06 00:00:54;;;;;;;21.68;12.68;;;;;;;2.87;83.09;98411.61;1686765;84;21057;-65
2021/12/06 00:03:30;;;;;;;24.57;12.43;;;;;;;2.84;83.28;98424.55;1680245;85;21001;-66
2021/12/06 00:05:57;;;;;;;22.73;12.98;;;;;;;2.86;83.55;98427.05;1685354;85;20991;-66
2021/12/06 00:08:23;;;;;;;25.35;13.32;;;;;;;2.87;83.60;98410.30;1679327;85;21095;-66
2021/12/06 00:10:51;;;;;;;25.90;14.85;;;;;;;2.85;83.66;98407.00;1686396;85;21584;-66
2021/12/06 00:13:22;;;;;;;25.85;13.93;;;;;;;2.87;83.80;98406.36;1682356;83;21066;-66
2021/12/06 00:15:49;;;;;;;25.35;14.50;;;;;;;2.86;83.89;98407.35;1683827;85;20990;-66
2021/12/06 00:18:18;;;;;;;24.63;15.00;;;;;;;2.85;84.21;98404.38;1680362;85;20952;-64
2021/12/06 00:20:44;;;;;;;26.30;14.45;;;;;;;2.83;84.35;98408.95;1650052;85;21167;-64
2021/12/06 00:23:11;;;;;;;33.18;14.55;;;;;;;2.81;84.47;98413.06;1649043;86;21066;-64
2021/12/06 00:25:38;;;;;;;29.92;14.38;;;;;;;2.81;84.69;98414.37;1678069;85;20967;-65
2021/12/06 00:28:04;;;;;;;27.55;14.73;;;;;;;2.89;84.68;98424.14;1682815;83;21078;-65
2021/12/06 00:30:31;;;;;;;26.40;14.33;;;;;;;2.92;84.73;98425.96;1685362;85;20979;-65
2021/12/06 00:32:58;;;;;;;29.12;14.98;;;;;;;2.94;84.88;98425.83;1681211;85;21175;-65
2021/12/06 00:35:26;;;;;;;25.60;13.65;;;;;;;2.95;84.92;98432.72;1684319;84;21000;-65
2021/12/06 00:38:00;;;;;;;25.68;13.70;;;;;;;2.91;84.86;98433.52;1646483;86;20990;-65
2021/12/06 00:40:31;;;;;;;27.50;14.60;;;;;;;2.91;85.05;98435.31;1628014;87;21060;-64
2021/12/06 00:42:58;;;;;;;27.02;13.28;;;;;;;2.90;85.05;98433.66;1618107;87;21079;-64
2021/12/06 00:45:24;;;;;;;31.57;14.98;;;;;;;2.93;85.04;98432.05;1623120;88;21186;-65
2021/12/06 00:47:50;;;;;;;22.75;13.50;;;;;;;2.96;85.02;98438.33;1631742;87;21459;-65
2021/12/06 00:50:19;;;;;;;30.35;14.55;;;;;;;3.01;85.03;98442.17;1651919;86;20957;-65
2021/12/06 00:52:47;;;;;;;27.25;13.60;;;;;;;3.06;84.89;98441.23;1645603;87;21511;-65
2021/12/06 00:55:14;;;;;;;25.20;14.15;;;;;;;3.12;84.80;98433.25;1650631;86;20953;-65
2021/12/06 00:57:41;;;;;;;26.95;15.00;;;;;;;3.16;84.74;98424.56;1651568;85;21122;-66
2021/12/06 01:00:15;;;;;;;26.85;14.55;;;;;;;3.17;84.31;98424.43;1657551;85;20913;-65
2021/12/06 01:02:42;;;;;;;25.25;13.03;;;;;;;3.11;84.30;98421.91;1657949;85;21044;-65
2021/12/06 01:05:10;;;;;;;23.30;13.88;;;;;;;3.02;84.36;98419.36;1669099;85;21035;-65
2021/12/06 01:07:36;;;;;;;25.48;13.48;;;;;;;3.01;84.33;98422.94;1644266;86;21019;-65
2021/12/06 01:10:05;;;;;;;25.95;14.33;;;;;;;3.00;84.47;98427.84;1664324;85;21105;-65
2021/12/06 01:12:32;;;;;;;25.52;13.45;;;;;;;2.98;84.44;98427.17;1652552;85;20975;-65
2021/12/06 01:14:58;;;;;;;25.17;14.05;;;;;;;2.96;84.38;98421.25;1663237;85;21103;-66
2021/12/06 01:17:25;;;;;;;22.95;13.00;;;;;;;2.92;84.52;98422.53;1661840;85;20941;-66
2021/12/06 01:19:53;;;;;;;22.87;13.80;;;;;;;2.97;84.66;98428.17;1628164;87;21084;-66
2021/12/06 01:24:54;;;;;;;24.50;12.95;;;;;;;3.01;84.27;98429.03;1639708;86;21089;-66
2021/12/06 01:40:27;;;;;;;25.10;13.65;;;;;;;3.05;83.95;98420.38;1697410;83;20943;-64
2021/12/06 01:42:54;;;;;;;24.90;13.45;;;;;;;3.00;83.90;98419.48;1696015;83;20967;-65
2021/12/06 01:45:21;;;;;;;23.20;13.48;;;;;;;2.97;83.89;98409.27;1694822;83;21034;-65
2021/12/06 01:47:48;;;;;;;24.77;14.68;;;;;;;2.97;83.88;98413.20;1687933;84;21169;-65
2021/12/06 01:50:25;;;;;;;28.15;14.60;;;;;;;2.96;83.97;98413.37;1691883;83;21076;-65
2021/12/06 01:52:54;;;;;;;21.97;14.07;;;;;;;2.99;83.91;98406.51;1692793;83;21022;-65
2021/12/06 01:55:29;;;;;;;26.27;13.60;;;;;;;2.99;83.81;98404.71;1693462;83;21030;-65
2021/12/06 01:57:55;;;;;;;23.20;12.68;;;;;;;3.00;83.70;98406.83;1695468;83;21082;-65
2021/12/06 02:00:40;;;;;;;21.80;13.15;;;;;;;2.98;83.61;98403.05;1696069;83;21149;-65
2021/12/06 02:03:09;;;;;;;26.42;14.20;;;;;;;2.95;83.73;98395.94;1696471;83;21446;-63
2021/12/06 02:05:38;;;;;;;25.57;13.98;;;;;;;2.96;83.64;98392.35;1705374;83;21401;-65
2021/12/06 02:08:05;;;;;;;21.02;12.82;;;;;;;2.96;83.55;98397.61;1696050;83;21521;-64
2021/12/06 02:10:33;;;;;;;24.70;13.55;;;;;;;2.94;83.57;98395.63;1699722;83;20938;-65
2021/12/06 02:13:02;;;;;;;19.70;12.78;;;;;;;2.94;83.48;98383.80;1697181;83;21882;-65
2021/12/06 02:15:43;;;;;;;20.80;12.00;;;;;;;2.93;83.49;98386.08;1700715;83;21604;-65
2021/12/06 02:18:11;;;;;;;21.23;12.20;;;;;;;2.91;83.58;98395.91;1695783;83;21036;-65
2021/12/06 02:20:44;;;;;;;21.50;12.78;;;;;;;2.91;83.55;98391.97;1694622;83;21557;-65
2021/12/06 02:23:04;;;;;;;22.65;13.65;;;;;;;2.90;83.64;98395.08;1704170;83;20983;-65
2021/12/06 02:25:32;;;;;;;21.62;13.05;;;;;;;2.88;83.70;98392.27;1694829;83;22241;-65
2021/12/06 02:27:58;;;;;;;20.90;13.48;;;;;;;2.90;83.57;98395.56;1695570;83;20899;-65
2021/12/06 02:30:25;;;;;;;23.12;12.60;;;;;;;2.83;83.82;98397.14;1701325;83;20939;-64
2021/12/06 02:32:53;;;;;;;21.23;13.43;;;;;;;2.80;83.91;98390.86;1698351;83;21436;-65
2021/12/06 02:35:22;;;;;;;19.90;12.88;;;;;;;2.81;83.92;98389.89;1701191;83;20871;-66
2021/12/06 02:37:50;;;;;;;22.20;12.03;;;;;;;2.81;83.87;98386.79;1702341;83;21170;-65
2021/12/06 02:40:27;;;;;;;21.02;13.20;;;;;;;2.80;83.87;98381.66;1696293;83;21094;-65
2021/12/06 02:42:53;;;;;;;20.12;12.68;;;;;;;2.82;83.67;98373.98;1691859;83;20958;-65
2021/12/06 02:45:24;;;;;;;19.15;12.18;;;;;;;2.81;83.81;98380.70;1701175;83;21001;-65
2021/12/06 02:47:54;;;;;;;20.00;12.78;;;;;;;2.82;83.78;98392.36;1695616;83;21033;-65
2021/12/06 02:50:26;;;;;;;17.40;12.50;;;;;;;2.80;83.80;98396.94;1699534;83;21122;-65
2021/12/06 02:52:54;;;;;;;16.77;11.00;;;;;;;2.80;83.65;98390.38;1694422;83;20998;-65
2021/12/06 02:57:57;;;;;;;18.30;11.73;;;;;;;2.79;83.53;98390.54;1696637;83;20999;-66
2021/12/06 03:00:24;;;;;;;16.77;11.08;;;;;;;2.77;83.51;98383.27;1696595;83;21034;-65
2021/12/06 03:02:50;;;;;;;17.10;11.85;;;;;;;2.78;83.41;98377.05;1697172;83;21816;-66
2021/12/06 03:05:17;;;;;;;18.32;11.50;;;;;;;2.77;83.29;98372.28;1706600;83;20899;-66
2021/12/06 03:07:47;;;;;;;17.05;11.35;;;;;;;2.78;83.29;98380.52;1700777;83;20947;-65
2021/12/06 03:10:13;;;;;;;15.98;11.35;;;;;;;2.78;83.15;98378.37;1697993;83;20951;-64
2021/12/06 03:12:40;;;;;;;18.20;10.55;;;;;;;2.75;83.17;98370.78;1697016;83;21003;-65
2021/12/06 03:15:07;;;;;;;21.45;12.43;;;;;;;2.73;83.20;98370.94;1700123;83;21481;-65
2021/12/06 03:17:34;;;;;;;14.15;10.65;;;;;;;2.75;83.22;98369.47;1671053;84;20952;-65
2021/12/06 03:20:01;;;;;;;16.90;11.55;;;;;;;2.73;83.18;98367.00;1650510;86;21587;-65
2021/12/06 03:22:29;;;;;;;18.00;10.95;;;;;;;2.72;83.20;98363.19;1652379;85;20970;-65
2021/12/06 03:24:56;;;;;;;16.07;11.57;;;;;;;2.74;83.07;98373.89;1656341;85;21068;-65
2021/12/06 03:27:23;;;;;;;16.20;11.08;;;;;;;2.74;83.04;98368.63;1654092;85;21162;-65
2021/12/06 03:29:51;;;;;;;16.73;11.35;;;;;;;2.74;83.03;98370.46;1669823;85;20895;-66
2021/12/06 03:32:19;;;;;;;17.60;11.85;;;;;;;2.73;83.02;98359.60;1649965;86;21423;-65
2021/12/06 03:34:46;;;;;;;14.25;10.40;;;;;;;2.70;83.08;98358.58;1648528;86;21072;-65
2021/12/06 03:37:13;;;;;;;15.35;10.58;;;;;;;2.69;83.02;98363.00;1641850;86;21091;-66
2021/12/06 03:39:44;;;;;;;14.95;10.75;;;;;;;2.70;83.01;98357.27;1645099;86;21950;-66
2021/12/06 03:44:41;;;;;;;20.60;11.93;;;;;;;2.76;83.00;98358.00;1811387;78;28841;-66
2021/12/06 03:47:14;;;;;;;17.80;12.58;;;;;;;2.73;83.14;98367.48;1797709;79;21072;-64
2021/12/06 03:49:45;;;;;;;22.65;13.50;;;;;;;2.73;83.21;98370.94;1801804;78;21124;-64
2021/12/06 03:52:13;;;;;;;24.07;13.83;;;;;;;2.73;83.35;98376.19;1800722;79;20824;-65
2021/12/06 03:54:41;;;;;;;34.67;18.15;;;;;;;2.73;83.49;98381.92;1812793;79;20891;-65
2021/12/06 03:57:10;;;;;;;32.78;16.60;;;;;;;2.67;84.45;98385.13;1792358;78;20892;-66
2021/12/06 03:59:36;;;;;;;35.45;17.55;;;;;;;2.61;84.98;98381.29;1793051;79;21473;-66
2021/12/06 04:02:04;;;;;;;35.95;17.48;;;;;;;2.56;85.50;98380.07;1802038;79;21155;-66
2021/12/06 04:04:32;;;;;;;40.28;17.67;;;;;;;2.54;85.54;98389.42;1782001;79;20985;-66
2021/12/06 04:06:59;;;;;;;39.63;17.98;;;;;;;2.54;85.83;98389.90;1807863;78;20962;-65
2021/12/06 04:09:26;;;;;;;37.80;18.10;;;;;;;2.52;86.40;98390.54;1792661;79;20981;-65
2021/12/06 04:11:54;;;;;;;33.65;17.32;;;;;;;2.52;86.59;98391.85;1782731;79;20930;-66
2021/12/06 04:14:20;;;;;;;34.95;17.40;;;;;;;2.47;87.23;98386.56;1803875;78;21129;-66
2021/12/06 04:16:47;;;;;;;39.95;19.40;;;;;;;2.48;87.18;98380.33;1794570;78;20911;-66
2021/12/06 04:19:14;;;;;;;34.18;16.75;;;;;;;2.51;87.22;98387.08;1806737;78;20991;-65
2021/12/06 04:21:41;;;;;;;31.87;16.82;;;;;;;2.54;87.28;98388.59;1796195;78;21025;-66
2021/12/06 04:24:09;;;;;;;33.05;17.73;;;;;;;2.48;87.45;98397.39;1803527;78;20902;-66
2021/12/06 04:26:38;;;;;;;28.73;16.52;;;;;;;2.48;87.67;98389.99;1800757;79;21159;-65
2021/12/06 04:29:06;;;;;;;33.42;16.00;;;;;;;2.44;87.87;98396.04;1803333;79;20899;-65
2021/12/06 04:31:43;;;;;;;39.20;17.25;;;;;;;2.42;87.88;98397.95;1806978;78;20876;-65
2021/12/06 04:34:10;;;;;;;36.15;17.82;;;;;;;2.39;88.20;98402.21;1808038;78;20935;-64
2021/12/06 04:36:39;;;;;;;38.17;17.23;;;;;;;2.46;88.00;98394.09;1794915;78;20932;-65
2021/12/06 04:39:08;;;;;;;32.13;16.12;;;;;;;2.42;88.20;98399.78;1802745;78;21155;-65
2021/12/06 04:41:36;;;;;;;36.65;17.15;;;;;;;2.43;88.21;98398.80;1796965;79;21032;-65
2021/12/06 04:44:04;;;;;;;31.77;16.27;;;;;;;2.45;88.14;98395.05;1807555;78;21011;-66
2021/12/06 04:46:31;;;;;;;31.62;16.07;;;;;;;2.44;88.16;98390.79;1779676;79;20976;-66
2021/12/06 04:48:57;;;;;;;33.55;16.80;;;;;;;2.44;88.30;98395.21;1783208;79;21493;-66
2021/12/06 04:51:24;;;;;;;34.83;17.60;;;;;;;2.46;88.25;98408.53;1788176;79;21140;-66
2021/12/06 04:53:51;;;;;;;32.20;17.12;;;;;;;2.50;88.43;98404.62;1801721;79;20915;-66
2021/12/06 04:56:36;;;;;;;32.58;16.62;;;;;;;2.53;88.25;98408.76;1785815;79;20852;-65
2021/12/06 04:59:23;;;;;;;34.65;18.12;;;;;;;2.47;88.24;98412.82;1789312;79;21033;-65
2021/12/06 05:01:51;;;;;;;32.63;17.30;;;;;;;2.46;88.52;98419.03;1792353;79;20994;-65
2021/12/06 05:04:24;;;;;;;30.45;15.80;;;;;;;2.47;88.53;98421.17;1768714;79;21151;-66
2021/12/06 05:06:54;;;;;;;37.40;19.12;;;;;;;2.47;88.52;98427.73;1794319;79;20899;-66
2021/12/06 05:09:27;;;;;;;30.55;17.42;;;;;;;2.47;88.45;98432.51;1785739;79;20955;-65
2021/12/06 05:11:54;;;;;;;29.67;16.95;;;;;;;2.48;88.37;98428.89;1787357;79;20978;-65
2021/12/06 05:14:21;;;;;;;33.20;16.85;;;;;;;2.49;88.34;98437.60;1785416;79;21018;-65
2021/12/06 05:16:48;;;;;;;28.12;16.55;;;;;;;2.45;88.40;98434.42;1792369;79;21204;-65
2021/12/06 05:19:14;;;;;;;31.70;18.35;;;;;;;2.46;88.30;98434.78;1797336;79;21477;-64
2021/12/06 05:21:41;;;;;;;30.82;17.23;;;;;;;2.42;88.34;98432.09;1787929;79;20931;-64
2021/12/06 05:24:08;;;;;;;33.08;18.15;;;;;;;2.44;88.33;98435.89;1791839;79;21533;-64
2021/12/06 05:26:35;;;;;;;32.30;17.48;;;;;;;2.47;88.21;98442.17;1777937;79;20947;-63
2021/12/06 05:29:04;;;;;;;31.75;17.65;;;;;;;2.48;88.09;98442.02;1789619;79;21150;-64
2021/12/06 05:31:33;;;;;;;34.60;18.48;;;;;;;2.49;87.97;98447.63;1727439;81;20940;-64
2021/12/06 05:34:07;;;;;;;31.40;17.65;;;;;;;2.47;87.86;98452.67;1720943;80;21440;-65
2021/12/06 05:36:29;;;;;;;31.65;17.57;;;;;;;2.46;87.89;98447.91;1764366;81;21590;-62
2021/12/06 05:38:57;;;;;;;32.15;17.92;;;;;;;2.48;87.81;98449.89;1761258;81;20943;-64
2021/12/06 05:41:23;;;;;;;31.93;17.37;;;;;;;2.46;87.80;98447.91;1722903;82;21184;-64
2021/12/06 05:43:49;;;;;;;36.80;18.20;;;;;;;2.47;87.85;98443.01;1727981;82;21419;-65
2021/12/06 05:46:16;;;;;;;38.20;19.95;;;;;;;2.49;87.90;98448.11;1763931;81;21033;-66
2021/12/06 05:48:42;;;;;;;34.33;18.52;;;;;;;2.49;87.79;98448.94;1762524;80;21587;-70
2021/12/06 05:51:08;;;;;;;36.42;19.77;;;;;;;2.44;87.64;98438.52;1768761;80;20899;-72
2021/12/06 05:53:35;;;;;;;33.35;19.30;;;;;;;2.42;87.51;98443.09;1771458;80;21060;-69
2021/12/06 05:56:02;;;;;;;33.48;18.62;;;;;;;2.41;87.53;98452.77;1766080;81;21025;-69
2021/12/06 05:58:29;;;;;;;29.60;16.93;;;;;;;2.42;87.37;98451.77;1767876;80;20933;-65
2021/12/06 06:00:56;;;;;;;31.05;16.80;;;;;;;2.41;87.29;98448.83;1763839;80;20974;-62
2021/12/06 06:03:22;;;;;;;33.25;17.62;;;;;;;2.39;87.43;98449.94;1766843;80;21018;-63
2021/12/06 06:05:49;;;;;;;30.60;17.20;;;;;;;2.37;87.50;98454.00;1768616;81;21591;-64
2021/12/06 06:08:16;;;;;;;30.95;16.48;;;;;;;2.36;87.45;98458.94;1766018;80;20979;-63
2021/12/06 06:10:45;;;;;;;27.35;16.87;;;;;;;2.37;87.34;98460.56;1756434;81;21542;-70
2021/12/06 06:13:11;;;;;;;32.28;17.70;;;;;;;2.37;87.37;98446.13;1763939;80;20935;-69
2021/12/06 06:15:39;;;;;;;36.15;18.20;;;;;;;2.40;87.28;98438.45;1759121;81;21394;-70
2021/12/06 06:18:05;;;;;;;37.40;18.40;;;;;;;2.39;87.22;98440.27;1758822;80;21140;-70
2021/12/06 06:20:43;;;;;;;33.08;16.15;;;;;;;2.40;87.27;98444.53;1765286;81;20849;-69
2021/12/06 06:23:09;;;;;;;34.75;18.65;;;;;;;2.39;87.25;98442.06;1760580;80;20957;-70
2021/12/06 06:25:36;;;;;;;35.33;18.67;;;;;;;2.32;87.20;98454.92;1756065;80;20981;-70
2021/12/06 06:28:04;;;;;;;36.35;18.92;;;;;;;2.30;87.28;98458.66;1753065;80;21537;-70
2021/12/06 06:30:30;;;;;;;31.82;18.48;;;;;;;2.31;87.23;98459.84;1769593;81;21603;-70
2021/12/06 06:32:57;;;;;;;30.02;16.95;;;;;;;2.31;87.33;98470.34;1771695;80;20935;-70
2021/12/06 06:35:24;;;;;;;32.17;17.32;;;;;;;2.30;87.34;98467.37;1758783;81;21517;-70
2021/12/06 06:37:50;;;;;;;34.73;18.30;;;;;;;2.29;87.36;98469.67;1763242;80;20925;-70
2021/12/06 06:40:17;;;;;;;32.45;17.50;;;;;;;2.31;87.24;98475.59;1705101;83;20949;-70
2021/12/06 06:42:43;;;;;;;37.78;18.87;;;;;;;2.32;87.29;98466.73;1760209;80;21112;-69
2021/12/06 06:45:14;;;;;;;35.15;18.85;;;;;;;2.32;87.30;98463.31;1776204;79;20908;-70
2021/12/06 06:47:40;;;;;;;33.60;17.67;;;;;;;2.33;87.19;98466.25;1794300;79;20888;-70
2021/12/06 06:50:08;;;;;;;26.68;15.63;;;;;;;2.32;87.23;98471.98;1785500;79;21534;-69
2021/12/06 06:52:35;;;;;;;27.52;16.70;;;;;;;2.33;87.13;98474.13;1784789;79;20947;-68
2021/12/06 06:55:04;;;;;;;28.67;16.65;;;;;;;2.29;87.06;98473.61;1791502;79;21138;-71
2021/12/06 06:57:30;;;;;;;30.88;17.35;;;;;;;2.30;87.05;98472.62;1781305;79;20967;-70
2021/12/06 06:59:57;;;;;;;28.40;15.45;;;;;;;2.28;86.96;98469.31;1797073;79;21488;-70
2021/12/06 07:02:23;;;;;;;29.40;15.80;;;;;;;2.29;87.02;98474.92;1784666;79;21044;-70
2021/12/06 07:04:49;;;;;;;29.18;16.12;;;;;;;2.33;86.75;98476.75;1786389;79;20877;-70
2021/12/06 07:07:16;;;;;;;23.02;14.33;;;;;;;2.35;86.61;98470.39;1782522;79;21122;-69
2021/12/06 07:09:43;;;;;;;23.25;14.30;;;;;;;2.38;86.45;98466.17;1782709;79;20899;-69
2021/12/06 07:12:17;;;;;;;25.65;14.85;;;;;;;2.44;86.24;98467.40;1789683;79;20880;-69
2021/12/06 07:14:42;;;;;;;21.35;12.90;;;;;;;2.44;85.95;98466.92;1789230;79;21434;-70
2021/12/06 07:17:09;;;;;;;23.12;14.47;;;;;;;2.41;85.89;98473.77;1782895;79;21044;-69
2021/12/06 07:19:36;;;;;;;24.55;14.15;;;;;;;2.39;85.74;98480.96;1796018;79;21148;-70
2021/12/06 07:22:03;;;;;;;23.30;13.78;;;;;;;2.39;85.76;98480.96;1783814;79;20982;-69
2021/12/06 07:24:30;;;;;;;28.10;15.55;;;;;;;2.46;85.82;98477.27;1790918;79;20989;-69
2021/12/06 07:26:56;;;;;;;20.95;13.80;;;;;;;2.48;85.46;98491.90;1781823;79;20927;-69
2021/12/06 07:29:23;;;;;;;25.02;15.48;;;;;;;2.45;85.37;98486.94;1786563;79;20931;-69
2021/12/06 07:31:51;;;;;;;21.57;15.13;;;;;;;2.46;85.42;98479.41;1784802;79;21889;-69
2021/12/06 07:34:17;;;;;;;24.90;14.87;;;;;;;2.48;85.49;98484.02;1777148;79;20978;-69
2021/12/06 07:36:44;;;;;;;28.42;14.95;;;;;;;2.53;85.44;98481.47;1780088;79;21016;-69
2021/12/06 07:39:10;;;;;;;29.67;15.35;;;;;;;2.52;85.37;98477.18;1788721;79;21438;-67
2021/12/06 07:41:37;;;;;;;26.07;15.70;;;;;;;2.55;85.36;98482.98;1788578;79;21210;-66
2021/12/06 07:44:05;;;;;;;24.85;14.53;;;;;;;2.57;85.29;98487.59;1787879;79;21152;-66
2021/12/06 07:46:31;;;;;;;26.17;15.30;;;;;;;2.61;85.33;98490.77;1785198;79;20911;-66
2021/12/06 07:48:57;;;;;;;28.27;15.32;;;;;;;2.62;85.27;98497.66;1788458;79;21050;-65
2021/12/06 07:51:25;;;;;;;26.02;15.03;;;;;;;2.67;85.15;98493.63;1733109;81;21070;-67
2021/12/06 07:53:52;;;;;;;22.52;14.00;;;;;;;2.67;85.04;98494.11;1721496;82;20880;-67
2021/12/06 07:56:18;;;;;;;25.45;15.05;;;;;;;2.64;85.11;98500.48;1728454;82;21115;-66
2021/12/06 07:58:45;;;;;;;29.77;16.23;;;;;;;2.73;85.09;98495.69;1726526;82;20980;-66
2021/12/06 08:01:12;;;;;;;22.58;14.23;;;;;;;2.72;84.67;98501.07;1730151;82;20916;-65
2021/12/06 08:03:41;;;;;;;25.57;15.23;;;;;;;2.62;84.96;98511.62;1729556;81;20951;-66
2021/12/06 08:06:08;;;;;;;23.55;14.13;;;;;;;2.63;85.00;98508.04;1731740;81;20936;-66
2021/12/06 08:08:35;;;;;;;26.93;14.73;;;;;;;2.68;84.94;98493.98;1721100;82;21154;-66
2021/12/06 08:11:13;;;;;;;27.40;15.18;;;;;;;2.71;84.90;98494.18;1738620;82;21010;-67
2021/12/06 08:13:44;;;;;;;27.52;14.63;;;;;;;2.72;84.96;98494.02;1726242;81;21410;-68
2021/12/06 08:16:17;;;;;;;28.35;15.65;;;;;;;2.73;84.65;98489.12;1731545;81;20961;-67
2021/12/06 08:18:45;;;;;;;28.32;15.98;;;;;;;2.69;84.71;98493.48;1734714;81;21058;-66
2021/12/06 08:21:13;;;;;;;30.15;16.12;;;;;;;2.73;84.56;98495.69;1727805;81;21827;-66
2021/12/06 08:23:39;;;;;;;26.77;14.87;;;;;;;2.75;84.56;98491.11;1726634;81;21399;-65
2021/12/06 08:26:09;;;;;;;28.12;15.58;;;;;;;2.87;84.57;98498.30;1730393;81;21033;-66
2021/12/06 08:28:36;;;;;;;26.95;15.43;;;;;;;2.82;84.52;98493.97;1730596;81;21561;-67
2021/12/06 08:31:04;;;;;;;30.68;16.02;;;;;;;2.78;84.43;98497.88;1726709;81;20916;-66
2021/12/06 08:33:30;;;;;;;25.60;14.30;;;;;;;2.70;84.54;98491.20;1734026;82;21132;-66
2021/12/06 08:35:57;;;;;;;25.30;15.38;;;;;;;2.70;84.45;98484.16;1749123;81;20990;-67
2021/12/06 08:38:27;;;;;;;24.75;14.07;;;;;;;2.70;84.51;98482.84;1746983;80;20987;-65
2021/12/06 08:40:54;;;;;;;23.40;14.23;;;;;;;2.70;84.61;98479.39;1749067;80;21497;-67
2021/12/06 08:43:21;;;;;;;29.57;16.15;;;;;;;2.74;84.50;98482.08;1732002;82;21038;-68
2021/12/06 08:45:52;;;;;;;28.35;16.02;;;;;;;2.74;84.44;98474.20;1729604;81;21155;-67
2021/12/06 08:48:20;;;;;;;28.30;15.72;;;;;;;2.71;84.61;98481.05;1731719;80;21070;-64
2021/12/06 08:50:47;;;;;;;31.60;15.63;;;;;;;2.70;84.56;98476.76;1760761;81;20892;-70
2021/12/06 08:53:13;;;;;;;25.48;14.43;;;;;;;2.69;84.61;98480.34;1746816;81;21050;-64
2021/12/06 08:55:39;;;;;;;26.80;15.58;;;;;;;2.67;84.53;98475.25;1754567;80;21059;-66
2021/12/06 08:58:06;;;;;;;25.37;14.10;;;;;;;2.70;84.34;98478.91;1754312;80;21132;-68
2021/12/06 09:00:33;;;;;;;27.80;15.78;;;;;;;2.64;84.33;98475.53;1721132;80;20912;-66
2021/12/06 09:03:00;;;;;;;29.27;16.75;;;;;;;2.61;84.42;98478.95;1752069;81;20868;-65
2021/12/06 09:05:31;;;;;;;24.67;14.47;;;;;;;2.61;84.29;98475.02;1749587;81;21453;-66
2021/12/06 09:07:58;;;;;;;27.87;15.68;;;;;;;2.61;84.36;98472.39;1764214;80;20896;-65
2021/12/06 09:10:26;;;;;;;28.38;16.07;;;;;;;2.65;84.24;98471.12;1791594;79;21513;-64
2021/12/06 09:12:53;;;;;;;30.62;16.70;;;;;;;2.65;84.34;98468.48;1794100;79;21091;-66
2021/12/06 09:15:20;;;;;;;31.37;17.42;;;;;;;2.65;84.48;98461.92;1784309;79;21009;-65
2021/12/06 09:17:49;;;;;;;35.28;18.42;;;;;;;2.68;84.42;98455.91;1788429;79;20857;-66
2021/12/06 09:20:17;;;;;;;30.45;17.07;;;;;;;2.69;84.38;98452.77;1783332;79;21017;-65
2021/12/06 09:22:45;;;;;;;29.72;17.20;;;;;;;2.69;84.40;98450.14;1786471;79;21142;-65
2021/12/06 09:25:12;;;;;;;29.00;16.27;;;;;;;2.69;84.28;98447.52;1777554;79;21003;-66
2021/12/06 09:27:40;;;;;;;34.15;16.52;;;;;;;2.68;84.15;98449.82;1788713;79;21493;-65
2021/12/06 09:30:09;;;;;;;24.12;14.50;;;;;;;2.67;84.22;98452.93;1784985;79;20966;-66
2021/12/06 09:32:35;;;;;;;29.80;17.50;;;;;;;2.73;84.07;98448.90;1784326;79;20895;-66
2021/12/06 09:35:03;;;;;;;28.55;15.88;;;;;;;2.75;84.03;98448.26;1779046;79;22158;-66
2021/12/06 09:37:31;;;;;;;24.67;14.03;;;;;;;2.75;83.76;98454.83;1798292;79;21571;-65
2021/12/06 09:39:58;;;;;;;26.70;14.98;;;;;;;2.76;83.71;98459.11;1784895;79;20999;-65
2021/12/06 09:42:25;;;;;;;25.97;15.43;;;;;;;2.79;83.63;98456.20;1791886;79;21533;-65
2021/12/06 09:44:53;;;;;;;26.17;15.43;;;;;;;2.81;83.64;98455.56;1770729;79;20946;-65
2021/12/06 09:47:20;;;;;;;24.60;13.75;;;;;;;2.78;83.58;98459.31;1759771;81;21645;-65
2021/12/06 09:49:46;;;;;;;25.08;14.80;;;;;;;2.80;83.60;98456.52;1757027;80;21567;-67
2021/12/06 09:52:14;;;;;;;25.27;14.50;;;;;;;2.81;83.42;98449.83;1762564;80;20971;-66
2021/12/06 09:54:40;;;;;;;26.27;15.55;;;;;;;2.87;83.40;98445.77;1757021;80;20983;-65
2021/12/06 09:57:08;;;;;;;23.47;14.68;;;;;;;2.92;83.21;98445.66;1759199;81;20943;-65
2021/12/06 09:59:36;;;;;;;27.73;15.80;;;;;;;2.95;82.98;98436.66;1762391;80;21458;-62
2021/12/06 10:02:07;;;;;;;26.37;16.57;;;;;;;2.98;82.96;98438.52;1755637;80;20900;-64
2021/12/06 10:04:38;;;;;;;25.43;15.78;;;;;;;3.02;82.77;98430.66;1711176;81;21094;-65
2021/12/06 10:07:07;;;;;;;26.33;17.00;;;;;;;3.02;82.60;98430.66;1764080;81;20983;-62
2021/12/06 10:09:34;;;;;;;34.08;17.90;;;;;;;3.01;82.48;98426.89;1761922;80;21517;-62
2021/12/06 10:12:01;;;;;;;27.98;16.12;;;;;;;2.97;82.69;98436.85;1760068;80;21124;-62
2021/12/06 10:14:28;;;;;;;24.95;14.53;;;;;;;2.99;82.44;98436.24;1767486;81;21561;-64
2021/12/06 10:16:55;;;;;;;23.30;14.23;;;;;;;3.00;82.44;98440.50;1767882;81;20943;-65
2021/12/06 10:19:23;;;;;;;29.48;16.77;;;;;;;3.04;82.18;98448.93;1761704;80;21033;-64
2021/12/06 10:21:50;;;;;;;25.15;15.38;;;;;;;3.06;81.89;98441.72;1765089;80;20985;-66
2021/12/06 10:24:19;;;;;;;28.85;15.83;;;;;;;3.03;81.91;98443.32;1768766;80;21834;-65
2021/12/06 10:26:48;;;;;;;30.75;16.00;;;;;;;3.02;81.89;98448.26;1769011;81;21033;-65
2021/12/06 10:29:23;;;;;;;30.80;16.55;;;;;;;2.98;82.08;98448.20;1761647;81;21099;-65
2021/12/06 10:31:53;;;;;;;33.98;18.60;;;;;;;2.94;82.34;98446.85;1762580;80;21013;-64
2021/12/06 10:34:25;;;;;;;26.52;15.68;;;;;;;2.95;82.29;98453.73;1762100;80;20880;-69
2021/12/06 10:36:53;;;;;;;26.05;15.95;;;;;;;2.91;82.28;98459.80;1753048;81;21823;-66
2021/12/06 10:39:21;;;;;;;24.72;14.83;;;;;;;2.89;82.36;98459.13;1765361;81;20942;-66
2021/12/06 10:41:52;;;;;;;23.42;14.33;;;;;;;2.89;82.46;98456.49;1760060;80;21025;-65
2021/12/06 10:44:19;;;;;;;30.05;16.35;;;;;;;2.88;82.43;98452.20;1760071;80;20963;-68
2021/12/06 10:46:49;;;;;;;28.07;16.42;;;;;;;2.95;83.88;98444.55;1791297;79;20987;-68
2021/12/06 10:49:20;;;;;;;27.20;15.08;;;;;;;3.08;83.15;98448.95;1790160;79;21137;-69
2021/12/06 10:51:46;;;;;;;23.32;15.00;;;;;;;3.18;82.72;98455.48;1787804;79;20990;-69
2021/12/06 10:54:21;;;;;;;24.98;15.08;;;;;;;3.24;82.19;98451.77;1791274;79;21568;-67
2021/12/06 10:56:51;;;;;;;25.70;15.40;;;;;;;3.23;82.01;98450.12;1787893;79;20916;-67
2021/12/06 10:59:28;;;;;;;22.70;14.80;;;;;;;3.19;81.58;98452.70;1800640;79;20883;-65
2021/12/06 11:01:57;;;;;;;21.55;14.95;;;;;;;3.12;81.36;98450.33;1787062;79;21158;-67
2021/12/06 11:04:27;;;;;;;22.60;14.83;;;;;;;3.09;81.47;98439.63;1782176;79;20983;-65
2021/12/06 11:07:00;;;;;;;24.72;15.18;;;;;;;3.09;81.44;98439.63;1791832;79;21595;-66
2021/12/06 11:09:27;;;;;;;23.42;14.65;;;;;;;3.09;81.37;98440.95;1787558;79;21029;-66
2021/12/06 11:11:58;;;;;;;28.02;14.95;;;;;;;3.06;81.31;98433.84;1787988;79;20915;-66
2021/12/06 11:14:30;;;;;;;26.35;14.60;;;;;;;3.04;81.42;98429.22;1778561;79;21457;-66
2021/12/06 11:17:02;;;;;;;25.08;14.43;;;;;;;3.00;81.58;98426.53;1782242;79;21053;-65
2021/12/06 11:19:29;;;;;;;23.92;14.90;;;;;;;2.94;81.63;98426.66;1786090;79;21034;-64
2021/12/06 11:21:59;;;;;;;24.25;14.53;;;;;;;2.91;81.70;98429.58;1790521;79;21504;-63
2021/12/06 11:24:43;;;;;;;21.73;13.35;;;;;;;2.90;81.73;98427.92;1785768;79;20983;-63
2021/12/06 11:27:20;;;;;;;25.92;15.53;;;;;;;2.89;81.85;98420.20;1792063;79;21870;-66
2021/12/06 11:29:57;;;;;;;26.62;15.83;;;;;;;2.91;81.92;98417.77;1786649;79;20987;-63
2021/12/06 11:32:37;;;;;;;28.17;16.07;;;;;;;2.91;81.99;98404.62;1787219;79;21636;-64
2021/12/06 11:35:16;;;;;;;25.27;14.93;;;;;;;2.92;82.08;98412.83;1793218;79;20931;-64
2021/12/06 11:37:46;;;;;;;22.65;14.50;;;;;;;2.92;82.79;98423.33;1791989;79;20907;-64
2021/12/06 11:40:28;;;;;;;19.57;12.93;;;;;;;2.87;82.24;98420.33;1790720;79;21083;-63
2021/12/06 11:43:09;;;;;;;21.37;14.05;;;;;;;2.88;82.04;98419.84;1798879;79;20927;-62
2021/12/06 11:45:50;;;;;;;22.87;13.18;;;;;;;2.82;82.14;98412.55;1785692;79;21021;-63
2021/12/06 11:48:27;;;;;;;23.38;13.83;;;;;;;2.82;82.16;98412.06;1788686;79;21467;-64
2021/12/06 11:51:03;;;;;;;19.30;13.65;;;;;;;2.90;82.04;98408.70;1791346;79;20970;-66